Time;durP1;ratioP1;P1;durP2;ratioP2;P2;SDS_P1;SDS_P2;PMS_P1;PMS_P2;Temp;Humidity;BMP_temperature;BMP_pressure;BME280_temperature;BME280_humidity;BME280_pressure;Samples;Min_cycle;Max_cycle;Signal;HPM_P1;HPM_P2
2022/05/10 00:00:49;;;;;;;12.00;4.18;;;13.40;99.90;;;;;;5093295;27;20100;-74
2022/05/10 00:03:15;;;;;;;11.15;4.38;;;13.30;99.90;;;;;;5110492;27;20051;-75
2022/05/10 00:05:42;;;;;;;9.00;4.07;;;13.40;99.90;;;;;;5110831;27;20371;-75
2022/05/10 00:08:11;;;;;;;10.80;4.18;;;13.40;99.90;;;;;;5110292;27;20555;-74
2022/05/10 00:10:37;;;;;;;12.00;4.22;;;13.30;99.90;;;;;;5129440;27;20051;-75
2022/05/10 00:13:04;;;;;;;16.55;5.38;;;13.30;99.90;;;;;;5128700;27;20122;-75
2022/05/10 00:15:30;;;;;;;12.20;4.53;;;13.30;99.90;;;;;;5129213;27;20039;-74
2022/05/10 00:17:56;;;;;;;10.82;5.20;;;13.20;99.90;;;;;;5128522;27;20094;-75
2022/05/10 00:20:25;;;;;;;12.60;4.47;;;13.20;99.90;;;;;;5129004;27;20078;-75
2022/05/10 00:22:51;;;;;;;10.95;4.68;;;13.20;99.90;;;;;;5129256;27;20145;-74
2022/05/10 00:25:23;;;;;;;12.02;4.57;;;13.10;99.90;;;;;;5128450;27;20066;-75
2022/05/10 00:27:49;;;;;;;10.80;3.83;;;13.00;99.90;;;;;;5129633;27;20110;-75
2022/05/10 00:30:15;;;;;;;8.13;4.50;;;13.00;99.90;;;;;;5128204;27;20143;-74
2022/05/10 00:32:42;;;;;;;16.10;5.53;;;13.40;99.90;;;;;;5110254;27;20077;-75
2022/05/10 00:35:15;;;;;;;11.82;4.70;;;12.90;99.90;;;;;;5110032;27;20513;-75
2022/05/10 00:37:43;;;;;;;9.57;4.40;;;12.90;99.90;;;;;;5110131;27;20043;-75
2022/05/10 00:40:09;;;;;;;8.55;4.18;;;12.90;99.90;;;;;;5110095;27;20050;-75
2022/05/10 00:42:42;;;;;;;7.53;3.83;;;12.90;99.90;;;;;;5109238;27;20104;-75
2022/05/10 00:45:15;;;;;;;7.90;4.45;;;12.90;99.90;;;;;;5110711;27;20058;-75
2022/05/10 00:48:03;;;;;;;6.63;3.65;;;12.90;99.90;;;;;;5128089;27;20482;-75
2022/05/10 00:50:43;;;;;;;9.55;4.22;;;12.80;99.90;;;;;;5109120;27;20114;-75
2022/05/10 00:53:20;;;;;;;8.20;4.30;;;12.80;99.90;;;;;;5110674;27;20094;-75
2022/05/10 00:56:06;;;;;;;11.05;4.15;;;12.90;99.90;;;;;;5092103;27;20098;-76
2022/05/10 00:58:54;;;;;;;6.60;4.07;;;12.80;99.90;;;;;;5092495;27;20450;-75
2022/05/10 01:01:28;;;;;;;11.32;4.20;;;12.80;99.90;;;;;;5109834;27;20095;-75
2022/05/10 01:04:16;;;;;;;9.35;3.63;;;12.80;99.90;;;;;;5108974;27;20569;-76
2022/05/10 01:07:01;;;;;;;9.77;3.97;;;12.80;99.90;;;;;;5109840;27;20047;-75
2022/05/10 01:09:30;;;;;;;7.97;3.40;;;12.70;99.90;;;;;;5092441;27;20083;-75
2022/05/10 01:12:07;;;;;;;9.30;3.67;;;12.70;99.90;;;;;;5091862;27;20529;-76
2022/05/10 01:14:47;;;;;;;10.60;4.28;;;12.70;99.90;;;;;;5110072;27;20058;-76
2022/05/10 01:17:13;;;;;;;8.43;4.00;;;12.70;99.90;;;;;;5109013;27;20038;-76
2022/05/10 01:19:42;;;;;;;11.10;4.18;;;12.60;99.90;;;;;;5109686;27;20035;-75
2022/05/10 01:22:32;;;;;;;8.20;3.47;;;13.60;99.90;;;;;;5108503;27;20522;-75
2022/05/10 01:25:27;;;;;;;11.15;3.70;;;12.60;99.90;;;;;;5091624;27;20209;-75
2022/05/10 01:28:16;;;;;;;9.25;3.70;;;12.60;99.90;;;;;;5096161;27;20406;-75
2022/05/10 01:30:42;;;;;;;8.98;3.65;;;12.70;99.90;;;;;;5108987;27;20387;-75
2022/05/10 01:33:30;;;;;;;12.60;3.70;;;12.60;99.90;;;;;;5108938;27;20458;-75
2022/05/10 01:36:19;;;;;;;11.35;3.85;;;12.60;99.90;;;;;;5128170;27;20442;-75
2022/05/10 01:39:15;;;;;;;8.48;3.45;;;12.70;99.90;;;;;;5127173;27;20043;-75
2022/05/10 01:41:44;;;;;;;12.40;3.80;;;12.70;99.90;;;;;;5091944;27;20078;-75
2022/05/10 01:44:10;;;;;;;8.48;3.05;;;12.80;99.90;;;;;;5109259;27;20089;-76
2022/05/10 01:46:35;;;;;;;7.63;3.17;;;12.90;99.90;;;;;;5108758;27;20075;-73
2022/05/10 01:49:27;;;;;;;12.82;2.95;;;13.10;99.90;;;;;;5109246;27;20054;-75
2022/05/10 01:52:03;;;;;;;11.75;3.40;;;13.20;99.90;;;;;;5108699;27;20039;-75
2022/05/10 01:54:40;;;;;;;9.82;3.42;;;13.30;99.90;;;;;;5108758;27;20054;-76
2022/05/10 01:57:17;;;;;;;12.43;3.42;;;13.40;99.90;;;;;;5109094;27;20055;-76
2022/05/10 01:59:49;;;;;;;7.95;3.72;;;13.50;99.90;;;;;;5108061;27;20054;-75
2022/05/10 02:02:19;;;;;;;6.72;3.33;;;13.60;99.90;;;;;;5109320;27;20504;-75
2022/05/10 02:04:47;;;;;;;6.75;3.42;;;13.70;99.90;;;;;;5108386;27;20095;-75
2022/05/10 02:07:18;;;;;;;10.20;3.70;;;13.80;99.90;;;;;;5108387;27;20047;-75
2022/05/10 02:09:56;;;;;;;8.27;3.35;;;13.80;99.90;;;;;;5112924;27;20095;-75
2022/05/10 02:12:30;;;;;;;10.95;4.00;;;13.90;99.90;;;;;;5107713;27;20055;-75
2022/05/10 02:15:05;;;;;;;11.27;3.70;;;13.90;99.90;;;;;;5108857;27;20517;-74
2022/05/10 02:17:41;;;;;;;12.32;4.38;;;14.00;99.90;;;;;;5108393;27;20655;-74
2022/05/10 02:20:18;;;;;;;13.02;4.50;;;14.00;99.90;;;;;;5091156;28;20050;-74
2022/05/10 02:23:04;;;;;;;11.18;4.30;;;14.10;99.90;;;;;;5108613;27;20407;-74
2022/05/10 02:25:35;;;;;;;17.40;4.85;;;14.20;99.90;;;;;;5107382;27;20058;-74
2022/05/10 02:28:14;;;;;;;11.35;4.05;;;14.30;99.90;;;;;;5108586;28;20394;-74
2022/05/10 02:30:40;;;;;;;9.68;3.90;;;14.30;99.90;;;;;;5107739;28;20047;-74
2022/05/10 02:33:09;;;;;;;9.43;4.22;;;14.40;99.90;;;;;;5108063;28;20050;-74
2022/05/10 02:35:58;;;;;;;8.73;3.60;;;14.40;99.90;;;;;;5108795;28;20570;-73
2022/05/10 02:38:39;;;;;;;10.88;4.28;;;14.40;99.90;;;;;;5108312;28;20110;-74
2022/05/10 02:41:14;;;;;;;7.43;3.17;;;14.50;99.90;;;;;;5126402;28;20043;-74
2022/05/10 02:43:52;;;;;;;10.57;3.47;;;14.50;99.90;;;;;;5127065;28;20079;-74
2022/05/10 02:46:19;;;;;;;10.23;3.88;;;14.50;99.90;;;;;;5107535;28;20070;-74
2022/05/10 02:48:47;;;;;;;17.05;3.95;;;14.50;99.90;;;;;;5108842;28;20127;-73
2022/05/10 02:51:13;;;;;;;10.10;3.92;;;14.50;99.90;;;;;;5107285;28;20047;-74
2022/05/10 02:53:39;;;;;;;10.48;3.90;;;14.50;99.90;;;;;;5127224;28;20081;-74
2022/05/10 02:56:07;;;;;;;9.25;3.85;;;14.40;99.90;;;;;;5126230;28;20283;-74
2022/05/10 02:58:38;;;;;;;13.65;3.75;;;14.40;99.90;;;;;;5126031;28;20046;-74
2022/05/10 03:01:10;;;;;;;8.77;3.58;;;14.40;99.90;;;;;;5127238;28;20035;-74
2022/05/10 03:03:36;;;;;;;11.48;4.53;;;13.20;99.90;;;;;;5107776;28;20039;-74
2022/05/10 03:06:02;;;;;;;11.05;4.20;;;14.30;99.90;;;;;;5108461;28;20045;-74
2022/05/10 03:08:28;;;;;;;7.97;3.83;;;14.30;99.90;;;;;;5107388;28;20495;-74
2022/05/10 03:10:54;;;;;;;9.85;4.38;;;14.30;99.90;;;;;;5056964;28;20066;-74
2022/05/10 03:13:20;;;;;;;9.70;3.92;;;14.20;99.90;;;;;;5107537;28;20090;-74
2022/05/10 03:15:46;;;;;;;8.60;3.63;;;14.20;99.90;;;;;;5107639;28;20045;-74
2022/05/10 03:18:11;;;;;;;15.20;4.03;;;14.20;99.90;;;;;;5126490;28;20548;-74
2022/05/10 03:20:37;;;;;;;10.45;3.97;;;14.20;99.90;;;;;;5074251;28;20039;-74
2022/05/10 03:23:03;;;;;;;7.45;4.03;;;14.10;99.90;;;;;;5075008;27;20510;-74
2022/05/10 03:25:31;;;;;;;6.57;3.95;;;14.10;99.90;;;;;;5094590;27;20130;-74
2022/05/10 03:27:59;;;;;;;8.13;3.90;;;14.10;99.90;;;;;;5111753;27;20044;-74
2022/05/10 03:30:29;;;;;;;8.65;3.50;;;14.40;99.90;;;;;;5111610;27;20043;-74
2022/05/10 03:32:55;;;;;;;12.75;4.38;;;14.10;99.90;;;;;;5110801;27;20153;-74
2022/05/10 03:35:21;;;;;;;11.80;4.00;;;14.20;99.90;;;;;;5111719;27;20510;-74
2022/05/10 03:37:48;;;;;;;7.15;3.90;;;14.10;99.90;;;;;;5077440;27;20520;-74
2022/05/10 03:40:14;;;;;;;9.75;3.95;;;14.10;99.90;;;;;;5111649;27;20077;-73
2022/05/10 03:42:47;;;;;;;14.90;4.68;;;14.10;99.90;;;;;;5076778;27;20062;-74
2022/05/10 03:45:16;;;;;;;12.10;4.88;;;14.20;99.90;;;;;;5111170;27;20061;-74
2022/05/10 03:47:42;;;;;;;11.98;4.93;;;14.20;99.90;;;;;;5129351;27;20049;-74
2022/05/10 03:50:09;;;;;;;15.93;4.22;;;14.30;99.90;;;;;;5128808;27;20054;-74
2022/05/10 03:52:38;;;;;;;9.93;4.15;;;14.30;99.90;;;;;;5130010;27;20059;-74
2022/05/10 03:55:06;;;;;;;9.98;5.05;;;14.30;99.90;;;;;;5128769;27;20565;-74
2022/05/10 03:57:31;;;;;;;7.88;4.55;;;14.40;99.90;;;;;;5129621;27;20577;-74
2022/05/10 03:59:57;;;;;;;10.07;5.32;;;14.40;99.90;;;;;;5128817;27;20281;-74
2022/05/10 04:02:23;;;;;;;10.82;5.90;;;14.40;99.90;;;;;;5129067;27;20114;-74
2022/05/10 04:04:48;;;;;;;12.48;4.75;;;14.30;99.90;;;;;;5110647;27;20491;-74
2022/05/10 04:07:14;;;;;;;9.38;5.05;;;14.50;99.90;;;;;;5128628;27;20130;-74
2022/05/10 04:09:40;;;;;;;8.05;4.50;;;14.50;99.90;;;;;;5129294;27;20512;-75
2022/05/10 04:12:06;;;;;;;12.20;4.93;;;14.50;99.90;;;;;;5109993;27;20050;-74
2022/05/10 04:14:32;;;;;;;10.30;4.45;;;14.50;99.90;;;;;;5111074;27;20051;-74
2022/05/10 04:16:57;;;;;;;8.98;4.45;;;14.50;99.90;;;;;;5110495;27;20050;-74
2022/05/10 04:19:24;;;;;;;9.23;4.78;;;14.60;99.90;;;;;;5093482;27;20039;-75
2022/05/10 04:21:50;;;;;;;9.95;5.13;;;14.60;99.90;;;;;;5093599;27;20047;-74
2022/05/10 04:24:16;;;;;;;10.35;4.72;;;14.70;99.90;;;;;;5109998;27;20081;-74
2022/05/10 04:26:42;;;;;;;11.88;5.00;;;14.70;99.90;;;;;;5110608;27;20051;-74
2022/05/10 04:29:08;;;;;;;11.88;5.63;;;14.70;99.90;;;;;;5109956;27;20054;-74
2022/05/10 04:31:34;;;;;;;11.23;4.90;;;14.70;99.90;;;;;;5093847;27;20047;-75
2022/05/10 04:33:59;;;;;;;13.50;5.22;;;14.80;99.90;;;;;;5092720;27;20043;-75
2022/05/10 04:36:25;;;;;;;11.68;4.68;;;14.80;99.90;;;;;;5109333;27;20079;-75
2022/05/10 04:38:51;;;;;;;12.75;5.22;;;14.80;99.90;;;;;;5093385;27;20050;-74
2022/05/10 04:41:29;;;;;;;9.43;5.35;;;14.90;99.90;;;;;;5092152;27;20547;-74
2022/05/10 04:44:00;;;;;;;16.65;4.50;;;15.60;99.90;;;;;;5110344;27;20134;-74
2022/05/10 04:46:27;;;;;;;9.70;5.03;;;14.90;99.90;;;;;;5128170;27;20069;-75
2022/05/10 04:48:53;;;;;;;11.10;5.18;;;15.00;99.90;;;;;;5092357;27;20039;-74
2022/05/10 04:51:20;;;;;;;17.65;5.68;;;15.00;99.90;;;;;;5109216;27;20079;-73
2022/05/10 04:53:45;;;;;;;18.83;5.40;;;15.00;99.90;;;;;;5127936;27;20379;-73
2022/05/10 04:56:11;;;;;;;10.65;4.85;;;15.10;99.90;;;;;;5128200;27;20130;-74
2022/05/10 04:58:37;;;;;;;11.38;5.70;;;15.10;99.90;;;;;;5127960;27;20051;-75
2022/05/10 05:01:08;;;;;;;9.05;5.15;;;15.20;99.90;;;;;;5128664;27;20039;-75
2022/05/10 05:03:35;;;;;;;10.77;4.97;;;15.20;99.90;;;;;;5127321;27;20044;-75
2022/05/10 05:06:01;;;;;;;16.73;6.05;;;15.20;99.90;;;;;;5128043;27;20043;-74
2022/05/10 05:08:27;;;;;;;14.43;5.55;;;15.30;99.90;;;;;;5127374;27;20494;-75
2022/05/10 05:10:56;;;;;;;10.13;5.85;;;15.30;99.90;;;;;;5127242;27;20051;-75
2022/05/10 05:13:22;;;;;;;13.68;5.90;;;15.40;99.90;;;;;;5127702;27;20058;-75
2022/05/10 05:15:48;;;;;;;11.18;5.55;;;15.40;99.90;;;;;;5127628;27;20117;-75
2022/05/10 05:18:14;;;;;;;9.88;5.07;;;15.50;99.90;;;;;;5109918;27;20042;-75
2022/05/10 05:20:41;;;;;;;9.02;4.70;;;15.50;99.90;;;;;;5091962;27;20054;-76
2022/05/10 05:23:10;;;;;;;13.45;5.35;;;15.50;99.90;;;;;;5108905;27;20129;-77
2022/05/10 05:25:37;;;;;;;10.30;4.72;;;15.60;99.90;;;;;;5127477;27;20046;-76
2022/05/10 05:28:03;;;;;;;14.02;5.18;;;15.60;99.90;;;;;;5127055;27;20119;-75
2022/05/10 05:30:29;;;;;;;17.55;5.85;;;15.70;99.90;;;;;;5127572;27;20031;-76
2022/05/10 05:32:54;;;;;;;8.50;5.38;;;15.70;99.90;;;;;;5109091;27;20080;-76
2022/05/10 05:35:20;;;;;;;8.93;4.63;;;15.70;99.90;;;;;;5128183;27;20028;-76
2022/05/10 05:37:46;;;;;;;15.32;5.35;;;15.70;99.90;;;;;;5127525;27;20035;-75
2022/05/10 05:40:15;;;;;;;9.18;4.97;;;15.80;99.90;;;;;;5127738;27;20486;-74
2022/05/10 05:42:41;;;;;;;12.70;5.03;;;15.80;99.90;;;;;;5127236;27;20076;-74
2022/05/10 05:45:09;;;;;;;11.10;4.88;;;15.80;99.90;;;;;;5127034;27;20047;-74
2022/05/10 05:47:36;;;;;;;20.55;5.35;;;15.90;99.90;;;;;;5127381;27;20042;-75
2022/05/10 05:50:02;;;;;;;14.02;5.10;;;15.90;99.90;;;;;;5092050;27;20087;-74
2022/05/10 05:52:28;;;;;;;11.65;5.97;;;16.00;99.90;;;;;;5127834;27;20114;-74
2022/05/10 05:54:54;;;;;;;9.75;5.47;;;16.10;99.90;;;;;;5127052;27;20114;-74
2022/05/10 05:57:21;;;;;;;10.38;5.70;;;16.10;99.90;;;;;;5108921;27;20043;-73
2022/05/10 05:59:47;;;;;;;14.57;4.97;;;16.20;99.90;;;;;;5108873;27;20121;-74
2022/05/10 06:02:15;;;;;;;10.63;4.97;;;16.20;99.90;;;;;;5126874;27;20093;-74
2022/05/10 06:04:42;;;;;;;11.10;4.72;;;16.30;99.90;;;;;;5127443;27;20080;-75
2022/05/10 06:07:09;;;;;;;7.90;4.78;;;16.40;99.90;;;;;;5127123;27;20039;-75
2022/05/10 06:09:36;;;;;;;14.85;5.07;;;16.40;99.90;;;;;;5127519;27;20047;-75
2022/05/10 06:12:02;;;;;;;9.63;5.20;;;16.50;99.90;;;;;;5126568;27;20441;-75
2022/05/10 06:14:29;;;;;;;11.00;4.75;;;16.60;99.90;;;;;;5108605;27;20054;-75
2022/05/10 06:16:57;;;;;;;14.38;5.55;;;16.70;97.70;;;;;;5108433;27;20042;-75
2022/05/10 06:19:23;;;;;;;9.57;4.60;;;16.70;99.40;;;;;;5091379;28;20047;-75
2022/05/10 06:21:49;;;;;;;10.07;5.07;;;16.90;99.30;;;;;;5127509;27;20043;-74
2022/05/10 06:24:15;;;;;;;9.25;4.40;;;17.00;98.90;;;;;;5126838;27;20398;-75
2022/05/10 06:26:41;;;;;;;6.00;4.00;;;17.10;98.70;;;;;;5127415;27;20035;-74
2022/05/10 06:29:06;;;;;;;9.15;4.40;;;17.20;98.00;;;;;;5126665;27;20085;-75
2022/05/10 06:31:32;;;;;;;10.23;4.80;;;17.40;97.90;;;;;;5126607;28;20086;-75
2022/05/10 06:33:58;;;;;;;7.38;4.25;;;17.50;98.10;;;;;;5127064;28;20039;-75
2022/05/10 06:36:23;;;;;;;12.70;4.47;;;17.70;97.30;;;;;;5108213;28;20039;-75
2022/05/10 06:38:50;;;;;;;10.70;5.18;;;17.80;96.90;;;;;;5127469;28;20041;-75
2022/05/10 06:41:16;;;;;;;8.95;4.13;;;18.00;96.60;;;;;;5126503;28;20036;-75
2022/05/10 06:43:41;;;;;;;7.60;4.03;;;18.20;96.20;;;;;;5127598;28;20039;-75
2022/05/10 06:46:13;;;;;;;8.07;4.28;;;18.30;95.40;;;;;;5108344;28;20047;-75
2022/05/10 06:48:39;;;;;;;9.27;4.70;;;18.50;94.80;;;;;;5126948;28;20390;-75
2022/05/10 06:51:09;;;;;;;10.10;4.78;;;18.70;94.30;;;;;;5126693;28;20092;-75
2022/05/10 06:53:36;;;;;;;10.00;3.60;;;18.80;91.40;;;;;;5126404;28;20039;-75
2022/05/10 06:56:02;;;;;;;7.22;3.92;;;18.90;92.60;;;;;;5108583;28;20052;-76
2022/05/10 06:58:28;;;;;;;8.23;3.90;;;19.00;92.20;;;;;;5109691;27;20425;-75
2022/05/10 07:00:54;;;;;;;8.63;3.78;;;19.10;91.90;;;;;;5112900;27;20410;-75
2022/05/10 07:03:28;;;;;;;9.05;3.75;;;19.20;91.30;;;;;;5130360;27;20075;-75
2022/05/10 07:05:55;;;;;;;6.70;3.42;;;19.30;90.80;;;;;;5130362;27;20050;-75
2022/05/10 07:08:21;;;;;;;6.70;3.20;;;19.30;90.90;;;;;;5130955;27;20092;-75
2022/05/10 07:10:47;;;;;;;6.93;3.75;;;19.50;91.10;;;;;;5130180;27;20066;-76
2022/05/10 07:13:18;;;;;;;7.40;3.45;;;19.50;90.60;;;;;;5131259;27;20073;-75
2022/05/10 07:15:45;;;;;;;4.85;2.25;;;19.60;88.60;;;;;;5094943;27;20049;-75
2022/05/10 07:18:12;;;;;;;5.85;3.13;;;20.70;90.70;;;;;;5095811;27;20086;-75
2022/05/10 07:20:38;;;;;;;4.40;3.00;;;19.80;90.60;;;;;;5130460;27;20927;-75
2022/05/10 07:23:04;;;;;;;9.88;3.80;;;19.80;90.40;;;;;;5094510;27;20043;-75
2022/05/10 07:25:30;;;;;;;6.90;3.25;;;19.90;88.90;;;;;;5078295;27;20122;-75
2022/05/10 07:27:57;;;;;;;6.03;2.80;;;20.00;87.90;;;;;;5094771;27;20605;-75
2022/05/10 07:30:25;;;;;;;6.35;3.13;;;20.10;88.00;;;;;;5112208;27;20498;-75
2022/05/10 07:32:51;;;;;;;4.88;3.05;;;20.20;86.90;;;;;;5111572;27;20039;-75
2022/05/10 07:36:23;;;;;;;5.65;3.08;;;20.30;86.40;;;;;;5130390;27;20047;-75
2022/05/10 07:38:10;;;;;;;6.43;3.95;;;20.40;82.70;;;;;;5129892;27;20406;-75
2022/05/10 07:40:36;;;;;;;7.20;3.65;;;20.60;83.60;;;;;;5129571;27;20054;-75
2022/05/10 07:43:02;;;;;;;11.88;3.55;;;20.60;81.70;;;;;;5130219;27;20086;-75
2022/05/10 07:45:28;;;;;;;9.10;3.60;;;20.80;81.40;;;;;;5110908;27;20051;-75
2022/05/10 07:47:54;;;;;;;8.10;4.18;;;21.00;80.20;;;;;;5130243;27;20043;-76
2022/05/10 07:50:20;;;;;;;9.48;3.78;;;21.10;79.00;;;;;;5129447;27;20054;-75
2022/05/10 07:52:46;;;;;;;7.30;3.40;;;21.20;77.40;;;;;;5129802;27;20072;-75
2022/05/10 07:55:13;;;;;;;7.95;3.03;;;21.30;77.40;;;;;;5111374;27;20036;-76
2022/05/10 07:57:40;;;;;;;8.52;3.63;;;21.30;76.80;;;;;;5111047;27;20092;-76
2022/05/10 08:00:11;;;;;;;10.65;4.15;;;21.30;76.20;;;;;;5111690;27;20045;-75
2022/05/10 08:02:37;;;;;;;11.73;3.73;;;21.30;75.10;;;;;;5110993;27;20086;-75
2022/05/10 08:05:03;;;;;;;6.20;2.38;;;21.70;75.30;;;;;;5094507;27;20447;-75
2022/05/10 08:07:29;;;;;;;9.38;2.42;;;21.40;74.90;;;;;;5111173;27;20459;-75
2022/05/10 08:09:55;;;;;;;8.85;3.15;;;21.40;74.90;;;;;;5109572;27;20122;-75
2022/05/10 08:12:21;;;;;;;5.50;3.10;;;21.50;74.70;;;;;;5110861;27;20094;-76
2022/05/10 08:14:47;;;;;;;6.85;3.17;;;21.60;73.50;;;;;;5110848;27;20066;-75
2022/05/10 08:17:13;;;;;;;10.02;2.50;;;21.60;72.50;;;;;;5111217;27;20046;-75
2022/05/10 08:19:38;;;;;;;7.95;2.85;;;21.70;72.60;;;;;;5093588;27;20039;-75
2022/05/10 08:22:04;;;;;;;7.43;2.70;;;21.80;71.00;;;;;;5111385;27;20035;-75
2022/05/10 08:24:30;;;;;;;4.40;2.40;;;21.80;70.00;;;;;;5110241;27;20379;-76
2022/05/10 08:26:55;;;;;;;5.57;1.95;;;21.80;68.70;;;;;;5110733;27;20075;-75
2022/05/10 08:29:21;;;;;;;7.05;2.35;;;21.70;67.60;;;;;;5093568;27;20210;-75
2022/05/10 08:31:47;;;;;;;5.63;2.20;;;21.70;67.90;;;;;;5059887;27;20111;-75
2022/05/10 08:34:12;;;;;;;9.10;2.72;;;21.70;68.70;;;;;;5111302;27;20448;-75
2022/05/10 08:36:38;;;;;;;7.53;2.53;;;21.80;68.50;;;;;;5110595;27;20375;-76
2022/05/10 08:39:04;;;;;;;6.20;2.42;;;21.80;69.00;;;;;;5093694;27;20069;-75
2022/05/10 08:41:36;;;;;;;5.47;2.25;;;21.90;69.60;;;;;;5110049;27;20039;-75
2022/05/10 08:44:15;;;;;;;4.55;1.95;;;22.10;69.10;;;;;;5092797;27;20078;-75
2022/05/10 08:46:45;;;;;;;7.50;3.03;;;22.20;66.30;;;;;;5128725;27;20486;-75
2022/05/10 08:49:30;;;;;;;10.85;2.58;;;22.20;67.90;;;;;;5093492;27;20085;-75
2022/05/10 08:51:56;;;;;;;5.95;2.03;;;22.30;65.80;;;;;;5128865;27;20505;-75
2022/05/10 08:54:22;;;;;;;4.75;2.22;;;22.30;67.00;;;;;;5109806;27;20051;-75
2022/05/10 08:56:55;;;;;;;5.75;2.60;;;22.30;66.70;;;;;;5109764;27;20043;-75
2022/05/10 08:59:25;;;;;;;6.13;1.80;;;22.30;65.10;;;;;;5128793;27;20035;-75
2022/05/10 09:02:16;;;;;;;5.28;2.30;;;22.30;63.20;;;;;;5109684;27;20042;-75
2022/05/10 09:04:53;;;;;;;4.28;2.08;;;22.20;63.20;;;;;;5111099;27;20117;-75
2022/05/10 09:07:20;;;;;;;17.90;2.00;;;22.30;64.00;;;;;;5092620;27;20084;-75
2022/05/10 09:10:21;;;;;;;5.18;2.28;;;22.30;65.20;;;;;;5092658;27;20039;-75
2022/05/10 09:12:59;;;;;;;4.55;1.95;;;22.40;63.30;;;;;;5110656;27;20142;-75
2022/05/10 09:15:26;;;;;;;4.97;2.05;;;22.40;64.10;;;;;;5128200;27;20051;-75
2022/05/10 09:17:52;;;;;;;7.65;2.13;;;22.40;64.80;;;;;;5109281;27;20039;-75
2022/05/10 09:20:18;;;;;;;8.00;1.50;;;22.50;64.40;;;;;;5109439;27;20039;-75
2022/05/10 09:23:02;;;;;;;11.35;1.70;;;22.50;63.80;;;;;;5108835;27;20039;-75
2022/05/10 09:25:41;;;;;;;7.13;1.80;;;22.50;60.90;;;;;;5128558;27;20051;-75
2022/05/10 09:28:20;;;;;;;7.53;1.83;;;22.50;61.90;;;;;;5109319;27;20047;-75
2022/05/10 09:36:25;;;;;;;3.50;1.58;;;22.70;62.20;;;;;;5109335;27;20045;-76
2022/05/10 09:38:51;;;;;;;3.78;1.70;;;23.00;61.00;;;;;;5110089;27;20054;-75
2022/05/10 09:41:26;;;;;;;4.47;1.90;;;23.10;61.70;;;;;;5109247;27;20111;-75
2022/05/10 09:43:53;;;;;;;6.88;2.10;;;23.20;60.40;;;;;;5127484;27;20555;-75
2022/05/10 09:46:23;;;;;;;5.82;1.73;;;23.30;60.20;;;;;;5109337;27;20048;-75
2022/05/10 09:48:49;;;;;;;5.68;2.35;;;23.70;60.00;;;;;;5092066;27;20078;-75
2022/05/10 09:51:22;;;;;;;4.80;1.67;;;23.60;59.30;;;;;;5127992;27;20086;-75
2022/05/10 09:53:48;;;;;;;3.83;2.30;;;23.70;59.00;;;;;;5127448;27;20035;-74
2022/05/10 09:56:22;;;;;;;6.90;2.05;;;24.00;58.30;;;;;;5109233;27;20049;-75
2022/05/10 09:58:58;;;;;;;8.77;1.98;;;24.20;56.20;;;;;;5127763;27;20355;-75
2022/05/10 10:01:41;;;;;;;7.88;3.38;;;24.40;56.30;;;;;;5108346;27;20055;-75
2022/05/10 10:04:16;;;;;;;7.55;2.75;;;24.40;54.30;;;;;;5128173;27;20076;-75
2022/05/10 10:06:41;;;;;;;5.60;2.05;;;24.20;54.70;;;;;;5109069;27;20066;-75
2022/05/10 10:09:07;;;;;;;8.10;2.17;;;23.90;56.60;;;;;;5108741;27;20075;-75
2022/05/10 10:11:38;;;;;;;3.13;1.88;;;23.70;56.90;;;;;;5108716;27;20059;-75
2022/05/10 10:14:07;;;;;;;5.57;2.67;;;23.50;57.20;;;;;;5108370;27;20562;-75
2022/05/10 10:16:50;;;;;;;4.78;2.55;;;23.50;57.30;;;;;;5075258;27;20062;-75
2022/05/10 10:19:18;;;;;;;6.63;2.65;;;23.40;57.00;;;;;;5108512;27;20035;-75
2022/05/10 10:21:55;;;;;;;6.38;2.53;;;23.50;57.70;;;;;;5108604;28;20482;-75
2022/05/10 10:24:34;;;;;;;5.18;2.75;;;23.50;57.60;;;;;;5108584;27;20100;-76
2022/05/10 10:27:06;;;;;;;10.65;3.00;;;23.50;57.40;;;;;;5108760;28;20131;-75
2022/05/10 10:29:45;;;;;;;5.40;2.58;;;23.60;58.10;;;;;;5092094;28;20087;-75
2022/05/10 10:32:35;;;;;;;4.35;2.97;;;23.80;57.40;;;;;;5108735;28;20096;-75
2022/05/10 10:35:10;;;;;;;6.38;2.78;;;23.90;57.30;;;;;;5091347;28;20074;-76
2022/05/10 10:37:47;;;;;;;5.82;3.22;;;23.90;57.10;;;;;;5108578;28;20091;-75
2022/05/10 10:40:43;;;;;;;7.85;2.78;;;23.90;56.70;;;;;;5108609;28;20053;-75
2022/05/10 10:43:50;;;;;;;13.85;3.72;;;23.90;57.30;;;;;;5091550;28;20058;-75
2022/05/10 10:46:30;;;;;;;4.85;2.95;;;23.90;57.20;;;;;;5070019;28;20051;-75
2022/05/10 10:49:04;;;;;;;7.28;2.65;;;23.90;57.60;;;;;;5108515;28;20050;-75
2022/05/10 10:51:34;;;;;;;4.07;2.90;;;24.00;58.80;;;;;;5108381;28;20047;-75
2022/05/10 10:54:01;;;;;;;7.15;3.50;;;24.00;58.50;;;;;;5108443;28;20069;-75
2022/05/10 10:56:45;;;;;;;9.02;3.88;;;24.00;58.50;;;;;;5126525;28;20043;-75
2022/05/10 10:59:48;;;;;;;9.68;3.28;;;23.90;57.40;;;;;;5109335;28;20036;-75
2022/05/10 11:02:48;;;;;;;6.18;3.13;;;23.80;57.90;;;;;;5108244;28;20133;-75
2022/05/10 11:05:16;;;;;;;7.70;3.70;;;23.80;58.80;;;;;;5107612;28;20047;-75
2022/05/10 11:08:17;;;;;;;5.70;3.47;;;23.60;59.50;;;;;;5127021;28;20053;-75
2022/05/10 11:10:49;;;;;;;7.65;3.70;;;23.50;60.90;;;;;;5107715;28;20063;-76
2022/05/10 11:13:33;;;;;;;11.10;3.85;;;23.30;63.00;;;;;;5126356;28;20051;-75
2022/05/10 11:16:36;;;;;;;13.35;3.10;;;23.10;65.30;;;;;;5126559;28;20043;-75
2022/05/10 11:19:07;;;;;;;;;;;23.00;65.50;;;;;;5126954;28;20039;-75
2022/05/10 11:21:33;;;;;;;3.85;2.40;;;22.90;63.60;;;;;;5126434;28;19919;-75
2022/05/10 11:23:59;;;;;;;5.03;2.15;;;22.90;64.20;;;;;;5126212;28;20047;-75
2022/05/10 11:26:42;;;;;;;3.70;1.95;;;23.00;63.10;;;;;;5126198;28;20051;-75
2022/05/10 11:29:10;;;;;;;3.28;1.67;;;23.00;58.80;;;;;;5126677;28;20509;-75
2022/05/10 11:31:46;;;;;;;6.32;2.03;;;23.10;60.10;;;;;;5107683;28;20494;-75
2022/05/10 11:34:39;;;;;;;4.50;1.60;;;23.10;58.40;;;;;;5108323;28;20474;-75
2022/05/10 11:37:10;;;;;;;5.22;1.83;;;23.20;57.40;;;;;;5107771;28;20091;-75
2022/05/10 11:40:04;;;;;;;4.25;1.45;;;23.30;58.50;;;;;;5108381;28;20502;-75
2022/05/10 11:42:46;;;;;;;2.30;1.60;;;23.40;57.60;;;;;;5091487;28;20039;-74
2022/05/10 11:45:15;;;;;;;;;;;23.50;58.90;;;;;;5127719;27;20043;-75
2022/05/10 11:47:55;;;;;;;3.05;1.98;;;23.60;56.60;;;;;;5111369;27;20362;-75
2022/05/10 11:51:38;;;;;;;14.65;2.95;;;23.60;56.00;;;;;;5130080;27;20042;-75
2022/05/10 11:53:59;;;;;;;4.68;2.30;;;23.60;56.90;;;;;;5129701;27;20047;-75
2022/05/10 11:56:33;;;;;;;14.18;2.67;;;23.60;57.60;;;;;;5110859;27;20055;-75
2022/05/10 11:59:05;;;;;;;7.82;3.15;;;23.50;57.60;;;;;;5130164;27;20075;-75
2022/05/10 12:01:49;;;;;;;7.25;3.20;;;23.40;58.20;;;;;;5129912;27;20542;-75
2022/05/10 12:04:41;;;;;;;8.98;3.38;;;23.50;58.40;;;;;;5110846;27;20502;-75
2022/05/10 12:07:19;;;;;;;7.50;3.50;;;23.70;58.50;;;;;;5110952;27;20478;-76
2022/05/10 12:10:06;;;;;;;7.47;2.28;;;23.90;57.70;;;;;;5111004;27;20097;-75
2022/05/10 12:12:32;;;;;;;7.80;3.70;;;24.00;58.10;;;;;;5110966;27;20139;-75
2022/05/10 12:21:27;;;;;;;8.20;4.28;;;24.20;58.10;;;;;;5110815;27;20517;-76
2022/05/10 12:24:03;;;;;;;9.50;4.22;;;24.30;57.40;;;;;;5110860;27;20095;-75
2022/05/10 12:26:50;;;;;;;15.75;5.05;;;24.30;57.40;;;;;;5110565;27;20439;-75
2022/05/10 12:29:35;;;;;;;8.20;4.50;;;24.30;58.70;;;;;;5110685;27;20089;-75
2022/05/10 12:32:05;;;;;;;11.13;3.95;;;24.30;58.90;;;;;;5110436;27;20039;-75
2022/05/10 12:34:37;;;;;;;6.07;2.80;;;24.20;59.20;;;;;;5092973;27;20043;-75
2022/05/10 12:37:35;;;;;;;7.13;3.40;;;24.20;59.90;;;;;;5110391;27;20043;-75
2022/05/10 12:40:10;;;;;;;7.85;2.83;;;24.20;59.10;;;;;;5093415;27;20056;-75
2022/05/10 12:42:48;;;;;;;8.70;3.58;;;24.00;58.80;;;;;;5110053;27;20039;-75
2022/05/10 12:45:39;;;;;;;8.05;2.90;;;23.80;58.90;;;;;;5110641;27;20482;-75
2022/05/10 12:48:23;;;;;;;5.72;2.65;;;23.70;59.20;;;;;;5110500;27;20046;-76
2022/05/10 12:50:58;;;;;;;5.75;2.67;;;23.70;58.90;;;;;;5093517;27;20463;-76
2022/05/10 12:53:28;;;;;;;6.68;2.55;;;23.60;59.40;;;;;;5110382;27;20051;-76
2022/05/10 12:56:11;;;;;;;4.03;2.17;;;23.60;60.20;;;;;;5109419;27;20122;-76
2022/05/10 12:58:43;;;;;;;4.97;1.58;;;23.60;58.80;;;;;;5093709;27;20051;-76
2022/05/10 13:01:13;;;;;;;5.60;1.58;;;23.50;58.00;;;;;;5093711;27;20367;-77
2022/05/10 13:03:46;;;;;;;6.95;1.45;;;23.40;56.10;;;;;;5110237;27;20047;-76
2022/05/10 13:06:33;;;;;;;4.75;1.25;;;23.30;56.20;;;;;;5110504;27;20479;-76
2022/05/10 13:09:23;;;;;;;6.47;1.40;;;23.20;55.00;;;;;;5109954;27;20386;-76
2022/05/10 13:11:57;;;;;;;4.93;1.55;;;23.30;53.00;;;;;;5128086;27;20055;-76
2022/05/10 13:14:23;;;;;;;4.18;1.50;;;23.30;53.90;;;;;;5109629;27;20047;-76
2022/05/10 13:16:52;;;;;;;8.85;1.10;;;23.30;53.30;;;;;;5109848;27;20082;-76
2022/05/10 13:19:21;;;;;;;4.55;0.90;;;23.20;52.10;;;;;;5109967;27;20065;-76